Time;durP1;ratioP1;P1;durP2;ratioP2;P2;SDS_P1;SDS_P2;PMS_P1;PMS_P2;Temp;Humidity;BMP_temperature;BMP_pressure;BME280_temperature;BME280_humidity;BME280_pressure;Samples;Min_cycle;Max_cycle;Signal;HPM_P1;HPM_P2
2021/06/22 00:02:08;;;;;;;3.85;3.42;;;;;;;;;;5085996;28;20189;-64
2021/06/22 00:04:33;;;;;;;3.85;3.55;;;;;;;;;;5063122;28;20181;-64
2021/06/22 00:06:58;;;;;;;3.67;3.38;;;;;;;;;;5083634;28;20185;-63
2021/06/22 00:09:24;;;;;;;3.38;3.08;;;;;;;;;;5085234;28;20200;-63
2021/06/22 00:11:49;;;;;;;3.40;3.10;;;;;;;;;;5084683;28;20270;-63
2021/06/22 00:14:14;;;;;;;4.07;2.67;;;;;;;;;;5082788;28;20672;-63
2021/06/22 00:16:40;;;;;;;4.00;2.65;;;;;;;;;;5089568;28;20279;-63
2021/06/22 00:19:05;;;;;;;4.13;2.60;;;;;;;;;;5079024;28;20211;-64
2021/06/22 00:21:30;;;;;;;3.17;2.75;;;;;;;;;;5078940;28;20191;-66
2021/06/22 00:23:56;;;;;;;5.22;2.50;;;;;;;;;;5085653;28;20211;-66
2021/06/22 00:26:21;;;;;;;2.55;2.35;;;;;;;;;;5079950;28;20181;-64
2021/06/22 00:28:47;;;;;;;3.55;2.20;;;;;;;;;;5084136;28;20890;-64
2021/06/22 00:31:13;;;;;;;2.50;2.30;;;;;;;;;;5082330;28;20184;-62
2021/06/22 00:33:38;;;;;;;2.30;2.10;;;;;;;;;;5065830;28;20211;-63
2021/06/22 00:36:04;;;;;;;4.67;2.10;;;;;;;;;;5081217;28;20197;-64
2021/06/22 00:38:29;;;;;;;2.33;1.90;;;;;;;;;;5082168;28;20195;-62
2021/06/22 00:40:55;;;;;;;2.00;1.90;;;;;;;;;;5083741;28;20209;-64
2021/06/22 00:43:20;;;;;;;3.28;1.90;;;;;;;;;;5085645;28;20259;-65
2021/06/22 00:45:46;;;;;;;1.90;1.80;;;;;;;;;;5074469;28;20189;-64
2021/06/22 00:48:11;;;;;;;3.00;1.83;;;;;;;;;;5067845;28;20275;-64
2021/06/22 00:50:36;;;;;;;1.77;1.67;;;;;;;;;;5085452;28;20205;-63
2021/06/22 00:53:02;;;;;;;2.00;1.90;;;;;;;;;;5080970;28;20200;-65
2021/06/22 00:55:34;;;;;;;3.78;1.95;;;;;;;;;;5081972;28;20276;-63
2021/06/22 00:58:05;;;;;;;2.58;1.80;;;;;;;;;;5060219;28;20185;-64
2021/06/22 01:00:31;;;;;;;2.45;2.25;;;;;;;;;;5064083;28;20204;-64
2021/06/22 01:02:58;;;;;;;2.90;2.28;;;;;;;;;;5083628;28;20189;-63
2021/06/22 01:05:24;;;;;;;2.90;2.65;;;;;;;;;;5084278;28;20264;-64
2021/06/22 01:07:54;;;;;;;2.72;2.53;;;;;;;;;;5083273;28;20284;-64
2021/06/22 01:10:23;;;;;;;3.30;2.60;;;;;;;;;;5079733;28;20276;-63
2021/06/22 01:12:50;;;;;;;2.50;2.30;;;;;;;;;;5066542;28;20188;-63
2021/06/22 01:15:18;;;;;;;2.65;2.45;;;;;;;;;;5083472;28;20271;-62
2021/06/22 01:17:44;;;;;;;3.25;2.05;;;;;;;;;;5087677;28;20203;-63
2021/06/22 01:20:11;;;;;;;3.50;2.50;;;;;;;;;;5073172;28;20695;-64
2021/06/22 01:22:37;;;;;;;2.42;2.20;;;;;;;;;;5072569;28;20751;-64
2021/06/22 01:25:03;;;;;;;2.38;1.90;;;;;;;;;;5084606;28;20187;-63
2021/06/22 01:27:28;;;;;;;1.55;1.45;;;;;;;;;;5087217;28;20181;-64
2021/06/22 01:29:54;;;;;;;1.70;1.58;;;;;;;;;;5086400;28;20212;-65
2021/06/22 01:32:19;;;;;;;3.17;1.50;;;;;;;;;;5081362;28;20215;-63
2021/06/22 01:34:44;;;;;;;2.33;1.50;;;;;;;;;;5087090;28;20711;-62
2021/06/22 01:37:10;;;;;;;2.88;1.40;;;;;;;;;;5090353;28;20180;-64
2021/06/22 01:39:36;;;;;;;2.38;2.17;;;;;;;;;;5086892;28;20291;-63
2021/06/22 01:42:01;;;;;;;3.72;2.47;;;;;;;;;;5070335;28;20203;-64
2021/06/22 01:44:27;;;;;;;3.67;2.47;;;;;;;;;;5083737;28;20192;-63
2021/06/22 01:46:53;;;;;;;2.47;2.28;;;;;;;;;;5084029;28;20188;-64
2021/06/22 01:49:19;;;;;;;3.80;2.45;;;;;;;;;;5081879;28;20568;-63
2021/06/22 01:51:44;;;;;;;3.70;2.15;;;;;;;;;;5081253;28;20660;-64
2021/06/22 01:54:09;;;;;;;3.47;2.33;;;;;;;;;;5068494;28;20201;-65
2021/06/22 01:56:35;;;;;;;2.10;1.90;;;;;;;;;;5085085;28;20187;-65
2021/06/22 01:59:01;;;;;;;1.80;1.70;;;;;;;;;;5084229;28;20204;-64
2021/06/22 02:01:27;;;;;;;3.10;2.07;;;;;;;;;;5087350;28;20186;-65
2021/06/22 02:03:52;;;;;;;2.60;2.10;;;;;;;;;;5081287;28;20275;-64
2021/06/22 02:06:18;;;;;;;4.23;2.20;;;;;;;;;;5089004;28;20210;-64
2021/06/22 02:08:43;;;;;;;2.05;1.85;;;;;;;;;;5090316;28;20215;-63
2021/06/22 02:11:08;;;;;;;3.28;2.50;;;;;;;;;;5076138;28;20279;-64
2021/06/22 02:13:34;;;;;;;3.08;2.70;;;;;;;;;;5092280;28;20196;-64
2021/06/22 02:15:59;;;;;;;3.03;2.53;;;;;;;;;;5088879;28;20192;-64
2021/06/22 02:18:25;;;;;;;2.92;2.72;;;;;;;;;;5082728;28;20212;-62
2021/06/22 02:20:52;;;;;;;3.50;3.00;;;;;;;;;;5085436;28;20726;-63
2021/06/22 02:23:17;;;;;;;3.90;3.20;;;;;;;;;;5087141;28;20185;-64
2021/06/22 02:25:43;;;;;;;3.67;3.37;;;;;;;;;;5089643;28;20731;-64
2021/06/22 02:28:11;;;;;;;3.20;3.00;;;;;;;;;;5083605;28;20184;-64
2021/06/22 02:30:39;;;;;;;8.02;3.85;;;;;;;;;;5092853;28;20585;-63
2021/06/22 02:33:05;;;;;;;4.25;3.83;;;;;;;;;;5073457;28;20201;-64
2021/06/22 02:35:30;;;;;;;5.13;3.58;;;;;;;;;;5089438;28;20257;-63
2021/06/22 02:37:56;;;;;;;5.57;3.72;;;;;;;;;;5069389;28;20630;-62
2021/06/22 02:40:24;;;;;;;4.63;3.80;;;;;;;;;;5082207;28;20213;-63
2021/06/22 02:42:49;;;;;;;5.45;3.08;;;;;;;;;;5105738;22;20678;-75
2021/06/22 02:45:15;;;;;;;7.30;3.40;;;;;;;;;;5088179;28;20284;-75
2021/06/22 02:47:42;;;;;;;4.43;3.47;;;;;;;;;;5086708;28;20241;-76
2021/06/22 02:50:07;;;;;;;4.90;3.40;;;;;;;;;;5085973;28;20199;-76
2021/06/22 02:52:33;;;;;;;6.43;2.83;;;;;;;;;;5082558;28;20275;-76
2021/06/22 02:54:58;;;;;;;5.63;3.05;;;;;;;;;;5083578;28;20213;-76
2021/06/22 02:57:24;;;;;;;5.07;3.10;;;;;;;;;;5088283;28;20706;-76
2021/06/22 02:59:49;;;;;;;4.50;2.65;;;;;;;;;;5085125;28;20683;-76
2021/06/22 03:02:14;;;;;;;3.80;2.50;;;;;;;;;;5079566;28;20200;-76
2021/06/22 03:04:39;;;;;;;5.17;2.77;;;;;;;;;;5086059;28;20265;-76
2021/06/22 03:07:05;;;;;;;6.50;2.80;;;;;;;;;;5085241;28;20221;-76
2021/06/22 03:09:31;;;;;;;5.67;2.90;;;;;;;;;;5091385;28;20647;-76
2021/06/22 03:11:57;;;;;;;5.75;2.63;;;;;;;;;;5085137;28;20204;-76
2021/06/22 03:14:22;;;;;;;5.90;2.60;;;;;;;;;;5086430;28;20215;-76
2021/06/22 03:16:48;;;;;;;10.10;2.70;;;;;;;;;;5083756;28;20208;-76
2021/06/22 03:19:14;;;;;;;5.77;2.93;;;;;;;;;;5083308;28;20255;-76
2021/06/22 03:21:43;;;;;;;5.13;2.60;;;;;;;;;;5088077;28;20575;-76
2021/06/22 03:24:10;;;;;;;4.25;2.88;;;;;;;;;;5083045;28;20279;-76
2021/06/22 03:26:35;;;;;;;6.43;2.90;;;;;;;;;;5086359;28;20211;-76
2021/06/22 03:29:00;;;;;;;5.37;2.70;;;;;;;;;;5088201;28;20188;-76
2021/06/22 03:31:25;;;;;;;5.40;2.90;;;;;;;;;;5089599;28;20176;-76
2021/06/22 03:33:51;;;;;;;4.90;2.60;;;;;;;;;;5087511;28;20258;-76
2021/06/22 03:36:16;;;;;;;3.80;2.50;;;;;;;;;;5086259;28;20291;-76
2021/06/22 03:38:41;;;;;;;8.13;3.17;;;;;;;;;;5085731;28;20201;-76
2021/06/22 03:41:07;;;;;;;5.03;3.20;;;;;;;;;;5088062;28;20217;-76
2021/06/22 03:43:33;;;;;;;7.50;3.50;;;;;;;;;;5088593;28;20207;-76
2021/06/22 03:45:59;;;;;;;9.77;3.50;;;;;;;;;;5084576;28;20641;-76
2021/06/22 03:48:24;;;;;;;7.10;3.47;;;;;;;;;;5083851;28;20195;-76
2021/06/22 03:50:49;;;;;;;4.57;3.20;;;;;;;;;;5085418;28;20565;-76
2021/06/22 03:53:15;;;;;;;6.53;3.30;;;;;;;;;;5090012;28;20794;-76
2021/06/22 03:55:40;;;;;;;7.57;3.30;;;;;;;;;;5087016;28;20184;-76
2021/06/22 03:58:06;;;;;;;7.72;3.45;;;;;;;;;;5080186;28;20244;-76
2021/06/22 04:00:32;;;;;;;7.50;3.43;;;;;;;;;;5089177;28;20253;-76
2021/06/22 04:02:59;;;;;;;6.23;3.50;;;;;;;;;;5081028;28;20207;-76
2021/06/22 04:05:29;;;;;;;6.32;3.50;;;;;;;;;;5086031;28;20648;-76
2021/06/22 04:07:55;;;;;;;9.27;4.03;;;;;;;;;;5085207;28;20303;-77
2021/06/22 04:10:21;;;;;;;10.27;3.90;;;;;;;;;;5083367;28;20184;-76
2021/06/22 04:12:46;;;;;;;6.00;4.33;;;;;;;;;;5082164;28;20196;-76
2021/06/22 04:15:12;;;;;;;6.13;4.47;;;;;;;;;;5078260;28;20189;-76
2021/06/22 04:17:37;;;;;;;6.32;4.05;;;;;;;;;;5081708;28;20246;-76
2021/06/22 04:20:05;;;;;;;7.00;4.43;;;;;;;;;;5083860;28;20224;-76
2021/06/22 04:22:30;;;;;;;5.65;4.10;;;;;;;;;;5082296;28;20184;-76
2021/06/22 04:24:56;;;;;;;13.00;5.82;;;;;;;;;;5083991;28;20274;-76
2021/06/22 04:27:21;;;;;;;11.23;4.90;;;;;;;;;;5087738;28;20276;-76
2021/06/22 04:29:47;;;;;;;9.65;4.22;;;;;;;;;;5077847;28;20555;-76
2021/06/22 04:32:13;;;;;;;8.02;4.53;;;;;;;;;;5086613;28;20220;-76
2021/06/22 04:34:38;;;;;;;6.93;4.15;;;;;;;;;;5081525;28;20215;-76
2021/06/22 04:37:03;;;;;;;9.20;4.25;;;;;;;;;;5083308;28;20221;-76
2021/06/22 04:39:29;;;;;;;7.93;4.28;;;;;;;;;;5087106;28;20188;-76
2021/06/22 04:41:54;;;;;;;12.80;4.93;;;;;;;;;;5075318;28;20224;-76
2021/06/22 04:44:19;;;;;;;8.57;4.20;;;;;;;;;;5061411;28;20206;-76
2021/06/22 04:46:44;;;;;;;7.05;4.57;;;;;;;;;;5065016;28;20498;-76
2021/06/22 04:49:10;;;;;;;7.53;5.07;;;;;;;;;;5059435;28;20215;-76
2021/06/22 04:51:35;;;;;;;10.13;4.85;;;;;;;;;;5065577;28;20272;-76
2021/06/22 04:54:00;;;;;;;10.15;4.45;;;;;;;;;;5055057;28;20201;-76
2021/06/22 04:59:02;;;;;;;8.35;4.85;;;;;;;;;;5044239;28;20225;-58
2021/06/22 05:01:27;;;;;;;10.32;4.80;;;;;;;;;;5052969;28;20202;-57
2021/06/22 05:03:53;;;;;;;9.15;4.95;;;;;;;;;;5048270;28;20191;-57
2021/06/22 05:06:19;;;;;;;7.70;4.75;;;;;;;;;;5045110;28;20190;-58
2021/06/22 05:08:44;;;;;;;7.90;4.70;;;;;;;;;;5045141;28;20201;-57
2021/06/22 05:11:10;;;;;;;7.68;4.38;;;;;;;;;;5046514;28;20204;-57
2021/06/22 05:13:35;;;;;;;7.00;4.45;;;;;;;;;;5049421;28;20212;-56
2021/06/22 05:16:01;;;;;;;7.82;4.45;;;;;;;;;;5044458;28;20275;-60
2021/06/22 05:18:27;;;;;;;11.15;4.43;;;;;;;;;;5049614;28;20205;-58
2021/06/22 05:20:52;;;;;;;6.78;4.50;;;;;;;;;;5047439;28;20517;-56
2021/06/22 05:23:17;;;;;;;15.73;5.43;;;;;;;;;;5044138;28;20832;-57
2021/06/22 05:25:43;;;;;;;9.23;4.38;;;;;;;;;;5045182;28;20189;-57
2021/06/22 05:28:09;;;;;;;6.15;3.85;;;;;;;;;;5040195;28;20182;-56
2021/06/22 05:30:35;;;;;;;7.97;4.63;;;;;;;;;;5043555;28;20750;-56
2021/06/22 05:33:00;;;;;;;9.43;4.63;;;;;;;;;;5035095;28;20206;-57
2021/06/22 05:35:26;;;;;;;11.48;4.60;;;;;;;;;;5040886;28;20285;-56
2021/06/22 05:37:51;;;;;;;10.45;4.70;;;;;;;;;;5037695;28;20186;-57
2021/06/22 05:40:17;;;;;;;12.27;4.35;;;;;;;;;;5043733;28;20190;-57
2021/06/22 05:42:42;;;;;;;8.32;4.40;;;;;;;;;;5039952;28;20208;-57
2021/06/22 05:45:08;;;;;;;8.20;3.78;;;;;;;;;;5044476;28;20309;-56
2021/06/22 05:47:34;;;;;;;9.25;4.28;;;;;;;;;;5037139;28;20579;-56
2021/06/22 05:50:00;;;;;;;7.57;4.30;;;;;;;;;;5031490;28;20645;-56
2021/06/22 05:52:25;;;;;;;11.13;3.92;;;;;;;;;;5039004;28;20595;-56
2021/06/22 05:54:51;;;;;;;7.15;3.92;;;;;;;;;;5036568;28;20281;-57
2021/06/22 05:57:16;;;;;;;8.02;4.10;;;;;;;;;;5031715;28;20268;-57
2021/06/22 05:59:41;;;;;;;6.10;3.80;;;;;;;;;;5038322;28;20186;-57
2021/06/22 06:02:07;;;;;;;8.25;3.70;;;;;;;;;;5044796;28;20205;-58
2021/06/22 06:04:32;;;;;;;5.97;3.65;;;;;;;;;;5044537;28;20181;-57
2021/06/22 06:06:58;;;;;;;6.38;3.63;;;;;;;;;;5046368;28;20206;-57
2021/06/22 06:09:24;;;;;;;9.43;3.65;;;;;;;;;;5045209;28;20265;-56
2021/06/22 06:11:50;;;;;;;10.52;4.03;;;;;;;;;;5043323;28;20214;-57
2021/06/22 06:14:15;;;;;;;6.15;3.20;;;;;;;;;;5047121;28;20576;-58
2021/06/22 06:16:40;;;;;;;5.45;3.35;;;;;;;;;;5042139;28;20653;-57
2021/06/22 06:19:06;;;;;;;8.13;3.42;;;;;;;;;;5039904;28;20220;-56
2021/06/22 06:21:31;;;;;;;7.97;3.75;;;;;;;;;;5037562;28;20242;-57
2021/06/22 06:23:57;;;;;;;7.85;3.42;;;;;;;;;;5038190;28;20204;-57
2021/06/22 06:26:24;;;;;;;5.97;3.08;;;;;;;;;;5036772;28;20244;-56
2021/06/22 06:28:56;;;;;;;7.45;3.00;;;;;;;;;;5037947;28;20199;-57
2021/06/22 06:31:22;;;;;;;7.78;3.38;;;;;;;;;;5041678;28;20210;-58
2021/06/22 06:33:48;;;;;;;7.18;3.30;;;;;;;;;;5041895;28;20354;-57
2021/06/22 06:36:14;;;;;;;7.03;3.42;;;;;;;;;;5032644;28;20197;-56
2021/06/22 06:38:39;;;;;;;8.27;3.60;;;;;;;;;;5045886;28;20194;-56
2021/06/22 06:41:05;;;;;;;7.30;4.07;;;;;;;;;;5025460;28;20661;-54
2021/06/22 06:43:30;;;;;;;9.38;3.63;;;;;;;;;;5039621;28;20182;-57
2021/06/22 06:45:55;;;;;;;8.82;3.90;;;;;;;;;;5043240;28;20186;-56
2021/06/22 06:48:23;;;;;;;5.88;3.47;;;;;;;;;;5045446;28;20598;-57
2021/06/22 06:50:48;;;;;;;9.05;3.78;;;;;;;;;;5046123;28;20201;-55
2021/06/22 06:53:13;;;;;;;5.80;3.50;;;;;;;;;;5050716;28;20194;-56
2021/06/22 06:55:42;;;;;;;7.90;3.40;;;;;;;;;;5041119;28;20194;-57
2021/06/22 06:58:07;;;;;;;7.85;3.35;;;;;;;;;;5042241;28;20700;-58
2021/06/22 07:00:35;;;;;;;9.77;3.55;;;;;;;;;;5038873;28;20278;-56
2021/06/22 07:03:02;;;;;;;9.10;3.42;;;;;;;;;;5049483;28;20569;-57
2021/06/22 07:05:28;;;;;;;7.45;3.08;;;;;;;;;;5049810;28;20178;-59
2021/06/22 07:07:53;;;;;;;11.43;3.55;;;;;;;;;;5050887;28;20193;-57
2021/06/22 07:10:18;;;;;;;8.98;3.55;;;;;;;;;;5049867;28;20272;-57
2021/06/22 07:12:45;;;;;;;6.75;3.10;;;;;;;;;;5049908;28;20260;-57
2021/06/22 07:15:11;;;;;;;7.45;3.58;;;;;;;;;;5049936;28;20665;-58
2021/06/22 07:17:37;;;;;;;9.55;3.22;;;;;;;;;;5041802;28;20225;-57
2021/06/22 07:20:04;;;;;;;7.93;3.42;;;;;;;;;;5042055;28;20185;-58
2021/06/22 07:22:29;;;;;;;5.97;3.10;;;;;;;;;;5043278;28;20206;-57
2021/06/22 07:24:54;;;;;;;6.40;2.80;;;;;;;;;;5032269;28;20201;-57
2021/06/22 07:27:20;;;;;;;5.28;2.88;;;;;;;;;;5041370;28;20182;-57
2021/06/22 07:29:45;;;;;;;7.25;3.28;;;;;;;;;;5049260;28;20187;-57
2021/06/22 07:32:10;;;;;;;7.55;3.42;;;;;;;;;;5042804;28;20210;-57
2021/06/22 07:34:36;;;;;;;6.45;2.90;;;;;;;;;;5045611;28;20233;-57
2021/06/22 07:37:02;;;;;;;4.82;2.97;;;;;;;;;;5053647;28;20318;-58
2021/06/22 07:39:28;;;;;;;5.75;2.70;;;;;;;;;;5041604;28;20596;-58
2021/06/22 07:41:54;;;;;;;5.72;2.60;;;;;;;;;;5037731;28;20264;-59
2021/06/22 07:44:19;;;;;;;7.00;3.03;;;;;;;;;;5045779;28;20182;-57
2021/06/22 07:46:45;;;;;;;7.40;2.50;;;;;;;;;;5048883;28;20198;-58
2021/06/22 07:49:10;;;;;;;5.93;2.95;;;;;;;;;;5049491;28;20281;-58
2021/06/22 07:51:35;;;;;;;6.45;2.75;;;;;;;;;;5034880;28;20737;-58
2021/06/22 07:54:00;;;;;;;3.78;2.55;;;;;;;;;;5047840;28;20202;-58
2021/06/22 07:56:26;;;;;;;5.38;2.60;;;;;;;;;;5050222;28;20310;-58
2021/06/22 07:58:51;;;;;;;4.20;2.50;;;;;;;;;;5058979;28;20200;-58
2021/06/22 08:01:17;;;;;;;5.25;2.30;;;;;;;;;;5048198;28;20196;-58
2021/06/22 08:03:43;;;;;;;4.85;2.75;;;;;;;;;;5059554;28;20179;-58
2021/06/22 08:06:08;;;;;;;5.15;3.00;;;;;;;;;;5057602;28;20194;-58
2021/06/22 08:08:34;;;;;;;5.25;3.10;;;;;;;;;;5053541;28;20198;-58
2021/06/22 08:10:59;;;;;;;6.25;2.70;;;;;;;;;;5059756;28;20572;-57
2021/06/22 08:13:25;;;;;;;5.13;2.60;;;;;;;;;;5058946;28;20232;-57
2021/06/22 08:15:51;;;;;;;6.57;2.97;;;;;;;;;;5054549;28;20190;-58
2021/06/22 08:18:17;;;;;;;4.70;2.67;;;;;;;;;;5056932;28;20331;-57
2021/06/22 08:20:44;;;;;;;6.18;3.30;;;;;;;;;;5055786;28;20197;-58
2021/06/22 08:23:10;;;;;;;5.32;3.53;;;;;;;;;;5063626;28;20216;-58
2021/06/22 08:25:36;;;;;;;6.65;3.50;;;;;;;;;;5052522;28;20185;-57
2021/06/22 08:28:02;;;;;;;5.32;3.30;;;;;;;;;;5049038;28;20189;-57
2021/06/22 08:30:28;;;;;;;5.60;3.53;;;;;;;;;;5046646;28;20344;-56
2021/06/22 08:32:54;;;;;;;6.53;3.33;;;;;;;;;;5052318;28;20636;-58
2021/06/22 08:35:20;;;;;;;5.82;3.13;;;;;;;;;;5051515;28;20189;-55
2021/06/22 08:37:45;;;;;;;10.70;3.63;;;;;;;;;;5051742;28;20186;-54
2021/06/22 08:40:12;;;;;;;5.95;3.50;;;;;;;;;;5052511;28;20188;-57
2021/06/22 08:42:39;;;;;;;6.75;3.03;;;;;;;;;;5044000;28;20689;-55
2021/06/22 08:45:08;;;;;;;8.32;3.58;;;;;;;;;;5083013;22;20643;-60
2021/06/22 08:47:34;;;;;;;5.90;3.17;;;;;;;;;;5062109;28;20207;-59
2021/06/22 08:50:00;;;;;;;6.43;3.33;;;;;;;;;;5061179;28;20653;-60
2021/06/22 08:52:29;;;;;;;7.78;3.50;;;;;;;;;;5061566;28;20564;-60
2021/06/22 08:54:56;;;;;;;6.97;3.13;;;;;;;;;;5061996;28;20205;-61
2021/06/22 08:57:22;;;;;;;6.18;3.40;;;;;;;;;;5054645;28;20185;-60
2021/06/22 08:59:49;;;;;;;7.18;3.78;;;;;;;;;;5063369;28;20718;-61
2021/06/22 09:02:15;;;;;;;5.05;3.00;;;;;;;;;;5062752;28;20197;-59
2021/06/22 09:04:41;;;;;;;4.88;3.10;;;;;;;;;;5064456;28;20307;-59
2021/06/22 09:07:06;;;;;;;7.40;3.58;;;;;;;;;;5044611;28;20268;-59
2021/06/22 09:09:36;;;;;;;7.75;3.30;;;;;;;;;;5059235;28;20268;-59
2021/06/22 09:12:10;;;;;;;7.15;3.38;;;;;;;;;;5056963;28;20212;-60
2021/06/22 09:14:40;;;;;;;5.93;3.38;;;;;;;;;;5060462;28;20743;-61
2021/06/22 09:17:06;;;;;;;6.85;3.50;;;;;;;;;;5062885;28;20673;-59
2021/06/22 09:19:32;;;;;;;6.78;3.72;;;;;;;;;;5058841;28;20280;-61
2021/06/22 09:22:14;;;;;;;8.95;3.22;;;;;;;;;;5054371;28;20561;-59
2021/06/22 09:25:01;;;;;;;7.13;3.80;;;;;;;;;;5063712;28;20201;-59
2021/06/22 09:27:49;;;;;;;6.10;3.15;;;;;;;;;;5054414;28;20185;-60
2021/06/22 09:30:15;;;;;;;8.63;3.47;;;;;;;;;;5064263;28;20579;-60
2021/06/22 09:32:41;;;;;;;9.10;3.90;;;;;;;;;;5060659;28;20181;-60
2021/06/22 09:35:20;;;;;;;6.00;3.08;;;;;;;;;;5061508;28;20294;-60
2021/06/22 09:37:53;;;;;;;4.93;3.60;;;;;;;;;;5059918;28;20665;-61
2021/06/22 09:40:27;;;;;;;7.03;4.07;;;;;;;;;;5066542;28;20187;-59
2021/06/22 09:42:57;;;;;;;4.70;3.25;;;;;;;;;;5067120;28;20204;-60
2021/06/22 09:45:23;;;;;;;7.18;3.20;;;;;;;;;;5082635;28;20208;-59
2021/06/22 09:47:49;;;;;;;7.72;3.20;;;;;;;;;;5069683;28;20177;-60
2021/06/22 09:50:43;;;;;;;5.78;3.35;;;;;;;;;;5076173;28;20187;-59
2021/06/22 09:53:29;;;;;;;7.18;3.10;;;;;;;;;;5077182;28;20183;-59
2021/06/22 09:55:57;;;;;;;5.13;3.30;;;;;;;;;;5083708;28;20184;-58
2021/06/22 09:58:41;;;;;;;9.38;3.42;;;;;;;;;;5082828;28;20235;-59
2021/06/22 10:01:26;;;;;;;6.78;3.10;;;;;;;;;;5083819;28;20197;-58
2021/06/22 10:03:52;;;;;;;9.82;4.03;;;;;;;;;;5077324;28;20209;-57
2021/06/22 10:06:17;;;;;;;8.20;4.18;;;;;;;;;;5085866;28;20233;-57
2021/06/22 10:08:57;;;;;;;9.15;3.83;;;;;;;;;;5063665;28;20592;-59
2021/06/22 10:11:29;;;;;;;8.32;3.58;;;;;;;;;;5079735;28;20192;-60
2021/06/22 10:13:54;;;;;;;6.03;3.58;;;;;;;;;;5059256;28;20292;-59
2021/06/22 10:16:21;;;;;;;7.20;3.60;;;;;;;;;;5084887;28;20728;-59
2021/06/22 10:18:46;;;;;;;7.75;3.53;;;;;;;;;;5084336;28;20181;-59
2021/06/22 10:21:12;;;;;;;8.32;3.42;;;;;;;;;;5082405;28;20199;-60
2021/06/22 10:23:37;;;;;;;6.70;3.42;;;;;;;;;;5076543;28;20236;-60
2021/06/22 10:26:02;;;;;;;9.73;3.33;;;;;;;;;;5071877;28;20180;-59
2021/06/22 10:28:28;;;;;;;8.05;3.58;;;;;;;;;;5082713;28;20246;-61
2021/06/22 10:30:54;;;;;;;5.10;3.20;;;;;;;;;;5078718;28;20176;-59
2021/06/22 10:33:19;;;;;;;5.40;3.40;;;;;;;;;;5066782;28;20224;-59
2021/06/22 10:35:46;;;;;;;9.23;3.50;;;;;;;;;;5083334;28;20200;-59
2021/06/22 10:38:15;;;;;;;5.13;3.05;;;;;;;;;;5070132;28;20196;-61
2021/06/22 10:40:41;;;;;;;6.07;3.20;;;;;;;;;;5081036;28;20169;-59
2021/06/22 10:43:07;;;;;;;6.05;3.20;;;;;;;;;;5084168;28;20566;-59
2021/06/22 10:45:32;;;;;;;7.13;3.03;;;;;;;;;;5067937;28;20186;-60
2021/06/22 10:47:59;;;;;;;9.00;3.03;;;;;;;;;;5083587;28;20185;-60
2021/06/22 10:50:25;;;;;;;7.65;3.15;;;;;;;;;;5083879;28;20192;-59
2021/06/22 10:53:07;;;;;;;5.03;3.00;;;;;;;;;;5082462;28;20188;-59
2021/06/22 10:55:42;;;;;;;6.32;3.25;;;;;;;;;;5087530;28;20691;-60
2021/06/22 10:58:08;;;;;;;8.50;3.03;;;;;;;;;;5080959;28;20196;-60
2021/06/22 11:00:49;;;;;;;6.65;3.15;;;;;;;;;;5080281;28;20190;-60
2021/06/22 11:03:27;;;;;;;6.57;3.47;;;;;;;;;;5070800;28;20248;-60
2021/06/22 11:06:02;;;;;;;5.68;3.03;;;;;;;;;;5069405;28;20208;-59
2021/06/22 11:08:32;;;;;;;8.65;3.28;;;;;;;;;;5081534;28;20193;-59
2021/06/22 11:10:57;;;;;;;15.43;3.67;;;;;;;;;;5069397;28;20875;-59
2021/06/22 11:13:41;;;;;;;4.38;2.60;;;;;;;;;;5082283;28;20212;-58
2021/06/22 11:16:12;;;;;;;4.32;3.05;;;;;;;;;;5086176;28;20250;-58
2021/06/22 11:19:06;;;;;;;5.72;3.08;;;;;;;;;;5070243;28;20196;-58
2021/06/22 11:21:43;;;;;;;9.48;2.97;;;;;;;;;;5077647;28;20845;-59
2021/06/22 11:24:18;;;;;;;5.65;2.70;;;;;;;;;;5088096;28;20200;-58
2021/06/22 11:26:43;;;;;;;3.90;2.70;;;;;;;;;;5085424;28;20223;-59
2021/06/22 11:29:10;;;;;;;3.58;2.30;;;;;;;;;;5088203;28;20238;-59
2021/06/22 11:31:53;;;;;;;4.25;2.65;;;;;;;;;;5084459;28;20188;-58
2021/06/22 11:34:25;;;;;;;4.47;2.38;;;;;;;;;;5084847;28;20235;-59
2021/06/22 11:36:55;;;;;;;5.65;2.63;;;;;;;;;;5086160;28;20196;-58
2021/06/22 11:39:22;;;;;;;4.40;3.05;;;;;;;;;;5068146;28;20185;-57
2021/06/22 11:42:07;;;;;;;5.53;2.78;;;;;;;;;;5084602;28;20660;-58
2021/06/22 11:44:34;;;;;;;4.25;2.72;;;;;;;;;;5081587;28;20252;-58
2021/06/22 11:47:00;;;;;;;5.47;2.53;;;;;;;;;;5087533;28;20173;-58
2021/06/22 11:49:44;;;;;;;5.35;2.60;;;;;;;;;;5090134;28;20185;-58
2021/06/22 11:52:12;;;;;;;7.00;2.75;;;;;;;;;;5069739;28;20238;-60
2021/06/22 11:54:47;;;;;;;7.45;2.60;;;;;;;;;;5076037;28;20243;-58
2021/06/22 11:57:16;;;;;;;4.72;2.58;;;;;;;;;;5090001;28;20183;-58
2021/06/22 11:59:41;;;;;;;4.45;2.33;;;;;;;;;;5074006;28;20185;-59
2021/06/22 12:02:07;;;;;;;4.20;2.30;;;;;;;;;;5067564;28;20711;-58
2021/06/22 12:04:32;;;;;;;5.65;2.70;;;;;;;;;;5068426;28;20208;-59
2021/06/22 12:06:57;;;;;;;4.18;2.22;;;;;;;;;;5088553;28;20184;-59
2021/06/22 12:09:23;;;;;;;4.25;2.30;;;;;;;;;;5069412;28;20280;-58
2021/06/22 12:11:48;;;;;;;6.18;3.00;;;;;;;;;;5086847;28;20195;-58
2021/06/22 12:14:18;;;;;;;4.55;2.70;;;;;;;;;;5079293;28;20296;-58
2021/06/22 12:16:45;;;;;;;7.75;2.60;;;;;;;;;;5089619;28;20213;-58
2021/06/22 12:19:14;;;;;;;9.40;3.00;;;;;;;;;;5068667;28;20185;-59
2021/06/22 12:21:48;;;;;;;6.45;2.58;;;;;;;;;;5082566;28;20229;-59
2021/06/22 12:24:17;;;;;;;5.65;2.42;;;;;;;;;;5071561;28;20220;-58
2021/06/22 12:26:45;;;;;;;4.50;2.60;;;;;;;;;;5085947;28;20219;-57
2021/06/22 12:29:23;;;;;;;7.60;2.78;;;;;;;;;;5068140;28;20713;-60
2021/06/22 12:31:56;;;;;;;7.10;2.85;;;;;;;;;;5086112;28;20196;-58
2021/06/22 12:34:28;;;;;;;8.23;2.90;;;;;;;;;;5085040;28;21011;-58
2021/06/22 12:36:56;;;;;;;6.22;2.65;;;;;;;;;;5085024;28;20184;-58
2021/06/22 12:39:21;;;;;;;5.43;2.75;;;;;;;;;;5084893;28;20180;-58
2021/06/22 12:41:47;;;;;;;5.85;2.80;;;;;;;;;;5083123;28;20188;-58
2021/06/22 12:44:13;;;;;;;4.75;2.85;;;;;;;;;;5083917;28;20261;-58
2021/06/22 12:46:43;;;;;;;4.80;2.75;;;;;;;;;;5087882;28;20272;-58
2021/06/22 12:49:13;;;;;;;8.55;3.00;;;;;;;;;;5089374;28;20181;-58
2021/06/22 12:51:47;;;;;;;7.07;3.00;;;;;;;;;;5086489;28;20599;-58
2021/06/22 12:54:14;;;;;;;5.72;2.90;;;;;;;;;;5071805;28;20214;-57
2021/06/22 12:56:58;;;;;;;4.95;2.42;;;;;;;;;;5088321;28;20272;-58
2021/06/22 12:59:28;;;;;;;6.70;2.70;;;;;;;;;;5081424;28;20196;-58
2021/06/22 13:02:03;;;;;;;7.95;2.90;;;;;;;;;;5076891;28;20183;-60
2021/06/22 13:04:38;;;;;;;6.03;2.80;;;;;;;;;;5064835;28;20212;-59
2021/06/22 13:07:11;;;;;;;4.63;3.00;;;;;;;;;;5087334;28;20687;-60
2021/06/22 13:09:38;;;;;;;11.98;2.92;;;;;;;;;;5084890;28;20185;-58
2021/06/22 13:12:21;;;;;;;7.47;2.88;;;;;;;;;;5085814;28;20733;-59
2021/06/22 13:14:49;;;;;;;5.90;3.00;;;;;;;;;;5084789;28;20212;-58
2021/06/22 13:17:19;;;;;;;7.47;2.67;;;;;;;;;;5087864;28;20204;-58
2021/06/22 13:20:06;;;;;;;9.15;3.20;;;;;;;;;;5087036;28;20184;-59
2021/06/22 13:22:37;;;;;;;4.32;2.53;;;;;;;;;;5086667;28;20181;-59
2021/06/22 13:25:05;;;;;;;7.65;2.83;;;;;;;;;;5065375;28;20226;-58
2021/06/22 13:27:33;;;;;;;6.45;2.90;;;;;;;;;;5067872;28;20184;-59
2021/06/22 13:30:20;;;;;;;4.63;2.60;;;;;;;;;;5086784;28;20253;-59
2021/06/22 13:32:50;;;;;;;5.65;3.03;;;;;;;;;;5086901;28;20184;-58
2021/06/22 13:35:25;;;;;;;4.88;2.75;;;;;;;;;;5066473;28;20262;-57
2021/06/22 13:38:02;;;;;;;6.10;2.65;;;;;;;;;;5067228;28;20253;-59
2021/06/22 13:40:49;;;;;;;6.88;2.80;;;;;;;;;;5085956;28;20183;-58
2021/06/22 13:43:22;;;;;;;4.95;2.90;;;;;;;;;;5065158;28;20185;-59
2021/06/22 13:45:59;;;;;;;4.00;2.72;;;;;;;;;;5058819;28;20216;-57
2021/06/22 13:48:30;;;;;;;4.93;2.60;;;;;;;;;;5079313;28;20322;-58
2021/06/22 13:51:01;;;;;;;4.35;2.45;;;;;;;;;;5086159;28;20183;-58
2021/06/22 13:53:33;;;;;;;4.05;2.60;;;;;;;;;;5083427;28;20220;-58
2021/06/22 13:55:59;;;;;;;4.85;2.40;;;;;;;;;;5084636;28;20193;-58
2021/06/22 13:58:25;;;;;;;5.32;3.15;;;;;;;;;;5083671;28;20188;-57
2021/06/22 14:00:53;;;;;;;6.70;2.83;;;;;;;;;;5070593;28;20189;-59
2021/06/22 14:03:19;;;;;;;3.72;2.30;;;;;;;;;;5093372;28;20763;-58
2021/06/22 14:05:46;;;;;;;4.95;2.40;;;;;;;;;;5080435;28;20268;-59
2021/06/22 14:08:12;;;;;;;4.57;2.40;;;;;;;;;;5078759;28;20310;-58
2021/06/22 14:10:43;;;;;;;4.07;2.38;;;;;;;;;;5077613;28;20267;-58
2021/06/22 14:13:10;;;;;;;5.30;2.28;;;;;;;;;;5078197;28;20193;-59
2021/06/22 14:15:36;;;;;;;4.57;2.58;;;;;;;;;;5080022;28;20558;-58
2021/06/22 14:18:03;;;;;;;4.93;2.40;;;;;;;;;;5075315;28;20194;-58
2021/06/22 14:20:29;;;;;;;3.50;2.35;;;;;;;;;;5075415;28;20187;-58
2021/06/22 14:22:55;;;;;;;4.13;2.35;;;;;;;;;;5071436;28;20609;-59
2021/06/22 14:25:21;;;;;;;6.13;2.70;;;;;;;;;;5070143;28;20240;-57
2021/06/22 14:27:47;;;;;;;5.55;2.83;;;;;;;;;;5079779;28;20189;-58
2021/06/22 14:30:15;;;;;;;5.47;2.67;;;;;;;;;;5059020;28;20187;-57
2021/06/22 14:32:41;;;;;;;5.00;2.75;;;;;;;;;;5075750;28;20196;-58
2021/06/22 14:35:09;;;;;;;5.25;2.63;;;;;;;;;;5064896;28;20247;-58
2021/06/22 14:37:34;;;;;;;3.53;2.30;;;;;;;;;;5082336;28;20189;-58
2021/06/22 14:40:04;;;;;;;5.95;2.58;;;;;;;;;;5080591;28;20212;-58
2021/06/22 14:42:30;;;;;;;5.60;2.65;;;;;;;;;;5081162;28;20224;-58
2021/06/22 14:44:55;;;;;;;5.03;2.35;;;;;;;;;;5097046;22;20269;-57
2021/06/22 14:47:21;;;;;;;5.68;2.25;;;;;;;;;;5060958;28;20189;-57
2021/06/22 14:49:47;;;;;;;4.30;2.40;;;;;;;;;;5065522;28;20189;-57